Time;durP1;ratioP1;P1;durP2;ratioP2;P2;SDS_P1;SDS_P2;PMS_P1;PMS_P2;Temp;Humidity;BMP_temperature;BMP_pressure;BME280_temperature;BME280_humidity;BME280_pressure;Samples;Min_cycle;Max_cycle;Signal;HPM_P1;HPM_P2
2024/01/28 00:01:08;;;;;;;7.43;6.93;;;;;;;5.50;100.00;147433.00;5113013;28;20188;-59
2024/01/28 00:03:35;;;;;;;7.33;6.93;;;;;;;5.43;100.00;147416.59;5113428;28;20267;-60
2024/01/28 00:06:02;;;;;;;7.60;7.10;;;;;;;5.39;100.00;147405.28;5113061;28;20197;-59
2024/01/28 00:08:30;;;;;;;7.73;7.27;;;;;;;5.58;100.00;147453.13;5112859;28;20260;-60
2024/01/28 00:10:57;;;;;;;8.00;7.60;;;;;;;5.46;100.00;147422.94;5112797;28;20191;-59
2024/01/28 00:13:25;;;;;;;7.73;7.30;;;;;;;5.63;100.00;147465.75;5112741;28;20187;-60
2024/01/28 00:15:53;;;;;;;8.70;6.97;;;;;;;5.65;100.00;147470.75;5112946;28;20635;-59
2024/01/28 00:18:20;;;;;;;8.30;7.70;;;;;;;5.65;100.00;147470.75;5112638;28;20194;-60
2024/01/28 00:20:48;;;;;;;8.37;7.87;;;;;;;5.66;100.00;147473.28;5112629;28;20282;-59
2024/01/28 00:23:15;;;;;;;8.37;7.77;;;;;;;5.58;100.00;147453.13;5112636;28;20187;-59
2024/01/28 00:25:43;;;;;;;8.43;7.93;;;;;;;5.58;100.00;147453.13;5112891;28;20271;-60
2024/01/28 00:28:11;;;;;;;9.50;8.80;;;;;;;5.38;100.00;147404.06;5112487;28;20180;-60
2024/01/28 00:30:38;;;;;;;8.13;7.53;;;;;;;5.48;100.00;147427.94;5112442;28;20195;-60
2024/01/28 00:33:05;;;;;;;8.43;8.03;;;;;;;5.48;100.00;147429.22;5112697;28;20241;-59
2024/01/28 00:35:34;;;;;;;8.83;8.43;;;;;;;5.49;100.00;147430.47;5112613;28;20688;-60
2024/01/28 00:38:01;;;;;;;8.33;7.73;;;;;;;5.31;100.00;147385.16;5112332;28;20183;-60
2024/01/28 00:40:28;;;;;;;8.40;7.90;;;;;;;5.38;100.00;147404.06;5112306;28;20243;-59
2024/01/28 00:42:57;;;;;;;8.80;8.30;;;;;;;5.25;100.00;147371.34;5112275;28;20184;-59
2024/01/28 00:45:24;;;;;;;8.90;8.30;;;;;;;5.16;100.00;147233.75;5112301;28;20296;-60
2024/01/28 00:47:51;;;;;;;9.37;8.77;;;;;;;5.22;100.00;147124.84;5112124;28;20236;-59
2024/01/28 00:50:19;;;;;;;9.83;8.97;;;;;;;5.22;100.00;146548.78;5112164;28;20183;-60
2024/01/28 00:52:47;;;;;;;8.73;8.13;;;;;;;5.30;100.00;145077.19;5112208;28;20197;-59
2024/01/28 00:55:14;;;;;;;8.83;8.33;;;;;;;5.27;100.00;146051.09;5111875;28;20238;-59
2024/01/28 00:57:41;;;;;;;8.73;8.30;;;;;;;5.16;100.00;147348.69;5112127;28;20615;-59
2024/01/28 01:00:11;;;;;;;10.07;9.10;;;;;;;5.18;100.00;147353.69;5112381;28;20252;-60
2024/01/28 01:02:39;;;;;;;10.60;9.97;;;;;;;5.30;100.00;147382.66;5112300;28;20363;-59
2024/01/28 01:05:06;;;;;;;10.83;9.93;;;;;;;5.36;100.00;147399.00;5112049;28;20667;-59
2024/01/28 01:07:33;;;;;;;11.63;10.43;;;;;;;5.41;100.00;147410.34;5112351;28;20735;-60
2024/01/28 01:10:00;;;;;;;10.93;10.03;;;;;;;5.43;100.00;147416.59;5112033;28;20183;-60
2024/01/28 01:12:27;;;;;;;10.90;10.20;;;;;;;5.47;100.00;147425.47;5111919;28;20179;-59
2024/01/28 01:14:54;;;;;;;11.43;10.63;;;;;;;5.47;100.00;147426.69;5111866;28;20192;-59
2024/01/28 01:17:23;;;;;;;12.13;11.20;;;;;;;5.58;100.00;147451.88;5112145;28;20237;-60
2024/01/28 01:19:50;;;;;;;15.60;12.97;;;;;;;5.60;100.00;147458.16;5111971;28;20232;-60
2024/01/28 01:22:17;;;;;;;16.40;14.73;;;;;;;5.60;100.00;147458.16;5111809;28;20538;-60
2024/01/28 01:24:44;;;;;;;14.83;13.37;;;;;;;5.53;100.00;147440.53;5111842;28;20183;-60
2024/01/28 01:27:11;;;;;;;14.47;13.17;;;;;;;5.57;100.00;147450.59;5112131;28;20237;-59
2024/01/28 01:29:38;;;;;;;13.87;12.67;;;;;;;5.58;100.00;147453.13;5111993;28;20207;-58
2024/01/28 01:32:06;;;;;;;14.17;12.77;;;;;;;5.58;100.00;147453.13;5112020;28;20496;-60
2024/01/28 01:34:34;;;;;;;11.93;10.83;;;;;;;5.59;100.00;147454.41;5111649;28;20180;-59
2024/01/28 01:37:02;;;;;;;11.33;10.43;;;;;;;5.53;100.00;147440.53;5111926;28;20679;-60
2024/01/28 01:39:29;;;;;;;10.30;9.50;;;;;;;5.45;100.00;147420.41;5111590;28;20192;-59
2024/01/28 01:41:56;;;;;;;8.57;8.07;;;;;;;5.32;100.00;147387.69;5111900;28;20184;-60
2024/01/28 01:44:23;;;;;;;7.90;7.40;;;;;;;5.23;100.00;147366.28;5111877;28;20183;-59
2024/01/28 01:46:50;;;;;;;7.00;6.67;;;;;;;5.18;100.00;147353.69;5111561;28;20184;-60
2024/01/28 01:49:18;;;;;;;7.20;6.80;;;;;;;5.12;100.00;147337.34;5111606;28;20192;-59
2024/01/28 01:51:47;;;;;;;7.63;7.13;;;;;;;5.17;100.00;147349.94;5111959;28;20232;-60
2024/01/28 01:54:14;;;;;;;6.73;6.33;;;;;;;5.07;100.00;147326.03;5111541;28;20634;-60
2024/01/28 01:56:41;;;;;;;6.43;6.13;;;;;;;4.87;100.00;147275.72;5111778;28;20211;-59
2024/01/28 01:59:08;;;;;;;7.47;6.87;;;;;;;5.03;100.00;147315.97;5111558;28;20190;-59
2024/01/28 02:01:36;;;;;;;6.47;6.17;;;;;;;5.05;100.00;147320.97;5111484;28;20286;-60
2024/01/28 02:04:03;;;;;;;7.30;6.70;;;;;;;4.96;100.00;147299.63;5111520;28;20187;-59
2024/01/28 02:06:30;;;;;;;6.63;6.23;;;;;;;4.91;100.00;147287.03;5111745;28;20603;-59
2024/01/28 02:08:59;;;;;;;6.93;6.57;;;;;;;4.93;100.00;147292.03;5111444;28;20282;-59
2024/01/28 02:11:26;;;;;;;6.83;6.43;;;;;;;4.99;100.00;147307.16;5115127;28;20638;-60
2024/01/28 02:13:53;;;;;;;6.63;6.23;;;;;;;4.86;100.00;147273.19;5115444;28;20179;-59
2024/01/28 02:16:21;;;;;;;6.17;5.77;;;;;;;4.88;100.00;147279.47;5115234;28;20631;-60
2024/01/28 02:18:48;;;;;;;6.17;5.87;;;;;;;4.88;100.00;147279.47;5114998;28;20187;-59
2024/01/28 02:21:15;;;;;;;6.87;6.47;;;;;;;5.01;100.00;147312.16;5115227;28;20179;-61
2024/01/28 02:23:43;;;;;;;6.93;6.53;;;;;;;4.86;100.00;147274.44;5114919;28;20184;-59
2024/01/28 02:26:10;;;;;;;7.00;6.60;;;;;;;4.69;100.00;147231.69;5114850;28;20187;-60
2024/01/28 02:28:38;;;;;;;6.63;6.33;;;;;;;5.07;100.00;147326.03;5114789;28;20199;-60
2024/01/28 02:31:05;;;;;;;6.60;6.20;;;;;;;5.11;100.00;147334.81;5114860;28;20518;-60
2024/01/28 02:33:32;;;;;;;6.50;6.20;;;;;;;5.06;100.00;147324.75;5114758;28;20236;-60
2024/01/28 02:35:59;;;;;;;6.63;6.03;;;;;;;5.03;100.00;147317.22;5114600;28;20211;-59
2024/01/28 02:38:26;;;;;;;5.50;5.30;;;;;;;5.05;100.00;147322.22;5114679;28;20187;-59
2024/01/28 02:40:55;;;;;;;5.70;5.40;;;;;;;5.07;100.00;147326.03;5114905;28;20244;-60
2024/01/28 02:43:22;;;;;;;4.97;4.77;;;;;;;5.09;100.00;147331.09;5114556;28;20191;-60
2024/01/28 02:45:49;;;;;;;4.70;4.50;;;;;;;5.03;100.00;147317.22;5114856;28;20244;-59
2024/01/28 02:48:16;;;;;;;4.53;4.33;;;;;;;4.94;100.00;147294.56;5114788;28;20184;-59
2024/01/28 02:50:43;;;;;;;4.30;4.10;;;;;;;4.81;100.00;147260.59;5114743;28;20179;-60
2024/01/28 02:53:10;;;;;;;4.23;4.03;;;;;;;4.97;100.00;147300.84;5114349;28;20184;-60
2024/01/28 02:55:37;;;;;;;4.37;4.17;;;;;;;4.96;100.00;147299.63;5114047;28;20235;-59
2024/01/28 02:58:06;;;;;;;4.13;3.93;;;;;;;4.96;100.00;147299.63;5114605;28;20245;-60
2024/01/28 03:00:35;;;;;;;3.67;3.47;;;;;;;4.99;100.00;147307.16;5114228;28;20609;-60
2024/01/28 03:03:03;;;;;;;3.50;3.40;;;;;;;4.88;100.00;147278.25;5114900;28;20217;-60
2024/01/28 03:05:30;;;;;;;3.57;3.27;;;;;;;4.94;100.00;147293.31;5114154;27;20191;-60
2024/01/28 03:07:57;;;;;;;3.30;3.07;;;;;;;4.97;100.00;147302.09;5114206;28;20179;-59
2024/01/28 03:10:24;;;;;;;5.33;3.97;;;;;;;4.90;100.00;147283.25;5114368;28;20183;-59
2024/01/28 03:12:51;;;;;;;4.30;4.10;;;;;;;4.85;100.00;147271.91;5114323;28;20614;-59
2024/01/28 03:15:20;;;;;;;3.77;3.57;;;;;;;4.91;100.00;147285.78;5113935;28;20283;-61
2024/01/28 03:17:47;;;;;;;4.13;3.87;;;;;;;4.88;100.00;147278.25;5114442;28;20203;-60
2024/01/28 03:20:15;;;;;;;4.47;4.27;;;;;;;4.99;100.00;147305.91;5113963;28;20604;-60
2024/01/28 03:22:42;;;;;;;4.00;3.80;;;;;;;5.03;100.00;147315.97;5113880;28;20183;-60
2024/01/28 03:25:10;;;;;;;4.03;3.77;;;;;;;4.96;100.00;147299.63;5113754;28;20192;-60
2024/01/28 03:27:37;;;;;;;3.47;3.37;;;;;;;5.10;100.00;147333.56;5113920;28;20270;-60
2024/01/28 03:30:05;;;;;;;4.20;3.90;;;;;;;5.15;100.00;147344.88;5113534;28;20179;-59
2024/01/28 03:32:34;;;;;;;4.03;3.83;;;;;;;5.21;100.00;147360.00;5113542;28;20270;-59
2024/01/28 03:35:02;;;;;;;3.97;3.77;;;;;;;5.12;100.00;147337.34;5113800;28;20557;-60
2024/01/28 03:37:29;;;;;;;4.00;3.80;;;;;;;5.33;100.00;147390.22;5113398;28;20199;-60
2024/01/28 03:39:56;;;;;;;3.77;3.57;;;;;;;5.26;100.00;147373.81;5113781;28;20179;-60
2024/01/28 03:42:23;;;;;;;3.70;3.50;;;;;;;5.28;100.00;147377.63;5113372;28;20184;-60
2024/01/28 03:44:51;;;;;;;3.23;3.13;;;;;;;5.29;100.00;147380.13;5113631;28;20603;-60
2024/01/28 03:47:18;;;;;;;4.00;3.80;;;;;;;5.24;100.00;147367.56;5113546;28;20304;-60
2024/01/28 03:49:46;;;;;;;4.03;3.83;;;;;;;5.35;100.00;147395.22;5113572;28;20660;-60
2024/01/28 03:52:13;;;;;;;3.40;3.30;;;;;;;5.42;100.00;147414.13;5113265;28;20543;-60
2024/01/28 03:54:40;;;;;;;3.23;3.10;;;;;;;5.27;100.00;147375.09;5113262;28;20284;-59
2024/01/28 03:57:08;;;;;;;3.80;3.60;;;;;;;5.14;100.00;147342.34;5113066;28;20203;-59
2024/01/28 03:59:39;;;;;;;3.50;3.40;;;;;;;5.19;100.00;147354.94;5113371;28;20660;-60
2024/01/28 04:02:07;;;;;;;3.20;3.10;;;;;;;5.07;100.00;147326.03;5113415;28;20642;-60
2024/01/28 04:04:34;;;;;;;3.30;3.17;;;;;;;5.19;100.00;147354.94;5113199;28;20674;-59
2024/01/28 04:07:02;;;;;;;2.90;2.80;;;;;;;5.12;100.00;147337.34;5113218;28;20236;-60
2024/01/28 04:09:29;;;;;;;3.07;2.93;;;;;;;5.14;100.00;147343.63;5112902;28;20180;-60
2024/01/28 04:11:57;;;;;;;2.83;2.73;;;;;;;5.08;100.00;147328.56;5112819;28;20240;-61
2024/01/28 04:14:24;;;;;;;2.77;2.63;;;;;;;5.09;100.00;147331.09;5112747;28;20184;-59
2024/01/28 04:16:52;;;;;;;3.00;2.90;;;;;;;5.23;100.00;147365.03;5112920;27;20586;-59
2024/01/28 04:19:19;;;;;;;2.90;2.70;;;;;;;5.27;100.00;147375.09;5112664;28;20187;-60
2024/01/28 04:21:46;;;;;;;3.93;2.80;;;;;;;5.06;100.00;147324.75;5113041;28;20642;-60
2024/01/28 04:24:14;;;;;;;2.20;2.00;;;;;;;5.22;100.00;147363.75;5112896;28;20179;-59
2024/01/28 04:26:41;;;;;;;2.40;2.30;;;;;;;5.17;100.00;147349.94;5112637;28;20229;-59
2024/01/28 04:29:08;;;;;;;2.63;2.53;;;;;;;5.19;100.00;147356.22;5112842;28;20183;-60
2024/01/28 04:31:35;;;;;;;2.30;2.20;;;;;;;5.14;100.00;147343.63;5112517;28;20234;-60
2024/01/28 04:34:03;;;;;;;2.83;2.63;;;;;;;5.25;100.00;147370.06;5111848;28;20188;-60
2024/01/28 04:36:30;;;;;;;2.30;2.20;;;;;;;5.22;100.00;147362.53;5112278;28;20199;-60
2024/01/28 04:38:57;;;;;;;2.60;2.50;;;;;;;5.34;100.00;147394.00;5112682;28;20183;-60
2024/01/28 04:41:25;;;;;;;2.60;2.50;;;;;;;5.27;100.00;147375.09;5112323;28;20240;-60
2024/01/28 04:43:52;;;;;;;3.27;3.17;;;;;;;5.18;100.00;147353.69;5112684;28;20566;-60
2024/01/28 04:46:19;;;;;;;2.97;2.87;;;;;;;5.33;100.00;147391.47;5112539;28;20702;-59
2024/01/28 04:48:46;;;;;;;2.87;2.77;;;;;;;5.29;100.00;147381.41;5112505;28;20190;-60
2024/01/28 04:51:13;;;;;;;3.27;3.17;;;;;;;5.26;100.00;147373.81;5112088;28;20180;-60
2024/01/28 04:53:40;;;;;;;2.90;2.80;;;;;;;5.28;100.00;147377.63;5112151;28;20271;-60
2024/01/28 04:56:08;;;;;;;3.13;2.90;;;;;;;5.24;100.00;147367.56;5111814;28;20250;-60
2024/01/28 04:58:36;;;;;;;2.97;2.87;;;;;;;5.36;100.00;147397.75;5112180;28;20214;-59
2024/01/28 05:01:03;;;;;;;3.03;2.93;;;;;;;5.34;100.00;147394.00;5112002;28;20187;-60
2024/01/28 05:03:30;;;;;;;3.20;3.00;;;;;;;5.35;100.00;147396.47;5111948;28;20203;-60
2024/01/28 05:05:58;;;;;;;3.00;2.90;;;;;;;5.37;100.00;147400.28;5112248;28;20240;-60
2024/01/28 05:08:25;;;;;;;3.30;3.20;;;;;;;5.26;100.00;147373.81;5112278;28;20618;-59
2024/01/28 05:10:52;;;;;;;3.23;3.13;;;;;;;5.26;100.00;147372.59;5112295;28;20187;-61
2024/01/28 05:13:20;;;;;;;2.73;2.63;;;;;;;5.26;100.00;147372.59;5112101;28;20245;-61
2024/01/28 05:15:49;;;;;;;3.20;3.10;;;;;;;5.14;100.00;147342.34;5112285;28;20268;-59
2024/01/28 05:18:16;;;;;;;2.87;2.77;;;;;;;5.19;100.00;147354.94;5111795;28;20208;-59
2024/01/28 05:20:44;;;;;;;2.93;2.83;;;;;;;5.15;100.00;147344.88;5112149;28;20261;-59
2024/01/28 05:23:11;;;;;;;3.50;3.30;;;;;;;5.18;100.00;147352.47;5111772;28;20240;-60
2024/01/28 05:25:38;;;;;;;4.00;3.70;;;;;;;5.22;100.00;147362.53;5111701;27;20199;-60
2024/01/28 05:28:08;;;;;;;3.47;3.37;;;;;;;5.05;100.00;147322.22;5111716;28;20179;-59
2024/01/28 05:30:35;;;;;;;3.73;3.43;;;;;;;5.23;100.00;147365.03;5111674;28;20236;-59
2024/01/28 05:33:04;;;;;;;4.37;4.17;;;;;;;5.09;100.00;147329.81;5111692;28;20187;-59
2024/01/28 05:35:32;;;;;;;4.00;3.80;;;;;;;5.27;100.00;147376.34;5112032;28;20637;-59
2024/01/28 05:37:59;;;;;;;4.03;3.73;;;;;;;5.18;100.00;147353.69;5111656;28;20207;-59
2024/01/28 05:40:26;;;;;;;4.30;4.10;;;;;;;5.15;100.00;147346.16;5111619;28;20184;-59
2024/01/28 05:42:53;;;;;;;3.97;3.83;;;;;;;5.06;100.00;147324.75;5111598;28;20184;-61
2024/01/28 05:45:20;;;;;;;3.60;3.40;;;;;;;5.01;100.00;147312.16;5113374;28;20183;-59
2024/01/28 05:47:47;;;;;;;3.70;3.50;;;;;;;5.16;100.00;147347.41;5115468;28;20611;-60
2024/01/28 05:50:16;;;;;;;4.30;4.10;;;;;;;5.14;100.00;147342.34;5115803;28;20690;-59
2024/01/28 05:52:43;;;;;;;4.00;3.80;;;;;;;5.12;100.00;147338.63;5116184;28;20188;-60
2024/01/28 05:55:10;;;;;;;4.03;3.73;;;;;;;5.05;100.00;147322.22;5115262;28;20300;-60
2024/01/28 05:57:37;;;;;;;3.90;3.70;;;;;;;5.10;100.00;147332.28;5115680;28;20203;-60
2024/01/28 06:00:06;;;;;;;3.90;3.70;;;;;;;5.01;100.00;147310.91;5115725;28;20619;-59
2024/01/28 06:02:33;;;;;;;4.43;4.10;;;;;;;5.03;100.00;147315.97;5115598;28;20202;-59
2024/01/28 06:05:00;;;;;;;4.27;3.93;;;;;;;5.10;100.00;147332.28;5115241;28;20284;-59
2024/01/28 06:07:28;;;;;;;4.17;3.93;;;;;;;5.06;100.00;147323.50;5115177;28;20654;-59
2024/01/28 06:09:55;;;;;;;4.17;3.97;;;;;;;5.15;100.00;147344.88;5115449;28;20183;-60
2024/01/28 06:12:22;;;;;;;3.80;3.63;;;;;;;5.11;100.00;147336.09;5115380;28;20619;-60
2024/01/28 06:14:48;;;;;;;3.87;3.67;;;;;;;5.17;100.00;147349.94;5115360;28;20499;-60
2024/01/28 06:17:16;;;;;;;4.27;4.07;;;;;;;5.16;100.00;147347.41;5114882;28;20256;-60
2024/01/28 06:19:44;;;;;;;4.87;4.57;;;;;;;5.19;100.00;147354.94;5115259;28;20602;-59
2024/01/28 06:22:11;;;;;;;4.17;3.97;;;;;;;5.28;100.00;147378.88;5115249;28;20194;-60
2024/01/28 06:24:42;;;;;;;4.93;4.73;;;;;;;5.23;100.00;147365.03;5114838;28;20554;-59
2024/01/28 06:27:09;;;;;;;4.50;4.30;;;;;;;5.31;100.00;147385.16;5114784;28;20179;-60
2024/01/28 06:29:36;;;;;;;4.70;4.40;;;;;;;5.26;100.00;147372.59;5114777;28;20613;-60
2024/01/28 06:32:04;;;;;;;4.80;4.60;;;;;;;5.24;100.00;147368.81;5114932;28;20183;-60
2024/01/28 06:34:31;;;;;;;4.60;4.30;;;;;;;5.22;100.00;147363.75;5114720;28;20200;-60
2024/01/28 06:36:58;;;;;;;4.87;4.47;;;;;;;5.12;100.00;147338.63;5114592;28;20211;-60
2024/01/28 06:39:25;;;;;;;4.07;3.87;;;;;;;5.01;100.00;147310.91;5114935;28;20556;-59
2024/01/28 06:41:53;;;;;;;4.70;4.50;;;;;;;4.96;100.00;147298.38;5114561;27;20210;-59
2024/01/28 06:44:20;;;;;;;4.10;3.90;;;;;;;4.86;100.00;147274.44;5114568;28;20182;-60
2024/01/28 06:46:48;;;;;;;4.00;3.80;;;;;;;4.93;100.00;147292.03;5114771;28;20256;-60
2024/01/28 06:49:15;;;;;;;4.47;4.27;;;;;;;4.95;100.00;147297.09;5114683;28;20197;-60
2024/01/28 06:51:43;;;;;;;4.23;4.03;;;;;;;4.92;100.00;147289.50;5114748;28;20606;-60
2024/01/28 06:54:10;;;;;;;4.37;4.07;;;;;;;4.89;100.00;147281.97;5114392;28;20627;-59
2024/01/28 06:56:38;;;;;;;4.10;3.90;;;;;;;4.99;100.00;147307.16;5113939;28;20214;-60
2024/01/28 06:59:07;;;;;;;4.50;4.30;;;;;;;5.04;100.00;147318.50;5114391;28;20187;-60
2024/01/28 07:01:34;;;;;;;4.03;3.83;;;;;;;5.13;100.00;147339.88;5114143;28;20207;-60
2024/01/28 07:04:01;;;;;;;3.87;3.67;;;;;;;5.13;100.00;147339.88;5114437;28;20546;-60
2024/01/28 07:06:29;;;;;;;4.10;3.90;;;;;;;5.16;100.00;147347.41;5114367;28;20183;-60
2024/01/28 07:08:56;;;;;;;3.97;3.77;;;;;;;5.01;100.00;147312.16;5114291;28;20175;-59
2024/01/28 07:11:23;;;;;;;3.97;3.77;;;;;;;5.06;100.00;147324.75;5113996;28;20218;-60
2024/01/28 07:13:50;;;;;;;4.03;3.83;;;;;;;5.09;100.00;147329.81;5113877;28;20187;-60
2024/01/28 07:16:19;;;;;;;3.67;3.50;;;;;;;5.10;100.00;147332.28;5113864;28;20184;-61
2024/01/28 07:18:46;;;;;;;3.87;3.67;;;;;;;4.95;100.00;147297.09;5113652;28;20288;-60
2024/01/28 07:21:15;;;;;;;3.87;3.67;;;;;;;5.09;100.00;147329.81;5113948;28;20179;-58
2024/01/28 07:23:42;;;;;;;4.13;3.93;;;;;;;5.07;100.00;147326.03;5113775;28;20183;-60
2024/01/28 07:26:09;;;;;;;4.13;3.93;;;;;;;5.07;100.00;147326.03;5113986;28;20189;-60
2024/01/28 07:28:37;;;;;;;4.20;4.00;;;;;;;4.82;100.00;147264.38;5113592;28;20236;-60
2024/01/28 07:31:06;;;;;;;4.43;4.07;;;;;;;5.14;100.00;147342.34;5113558;28;20233;-60
2024/01/28 07:33:34;;;;;;;4.97;4.77;;;;;;;5.20;100.00;147357.47;5113466;28;20195;-60
2024/01/28 07:36:02;;;;;;;3.77;3.57;;;;;;;5.18;100.00;147352.47;5113424;28;20187;-60
2024/01/28 07:38:29;;;;;;;4.20;4.00;;;;;;;5.06;100.00;147324.75;5113734;28;20199;-60
2024/01/28 07:40:57;;;;;;;4.73;4.43;;;;;;;5.19;100.00;147354.94;5113397;28;20616;-61
2024/01/28 07:43:24;;;;;;;3.87;3.60;;;;;;;5.13;100.00;147339.88;5113338;28;20274;-61
2024/01/28 07:45:51;;;;;;;4.67;4.40;;;;;;;5.12;100.00;147338.63;5113543;28;20200;-59
2024/01/28 07:48:18;;;;;;;3.97;3.77;;;;;;;5.10;100.00;147332.28;5113284;28;20176;-60
2024/01/28 07:50:47;;;;;;;4.00;3.80;;;;;;;4.88;100.00;147279.47;5113542;28;20581;-59
2024/01/28 07:53:15;;;;;;;4.00;3.80;;;;;;;5.29;100.00;147380.13;5113134;28;20192;-60
2024/01/28 07:55:41;;;;;;;4.03;3.83;;;;;;;5.16;100.00;147347.41;5113179;28;20701;-59
2024/01/28 07:58:09;;;;;;;3.53;3.33;;;;;;;5.14;100.00;147343.63;5113182;27;20587;-60
2024/01/28 08:00:36;;;;;;;3.50;3.30;;;;;;;5.10;100.00;147332.28;5112901;28;20188;-60
2024/01/28 08:03:03;;;;;;;3.50;3.33;;;;;;;5.13;100.00;146738.03;5113437;28;20272;-60
2024/01/28 08:05:31;;;;;;;3.20;3.00;;;;;;;5.12;100.00;145817.44;5112854;28;20256;-60
2024/01/28 08:08:00;;;;;;;2.57;2.47;;;;;;;4.81;100.00;144340.44;5112019;28;20224;-59
2024/01/28 08:10:27;;;;;;;2.27;2.17;;;;;;;5.05;100.00;139786.97;5112760;28;20203;-60
2024/01/28 08:12:55;;;;;;;2.60;2.50;;;;;;;5.07;100.00;140626.97;5112956;28;20624;-60
2024/01/28 08:15:22;;;;;;;2.77;2.67;;;;;;;5.30;100.00;137466.34;5112669;28;20191;-60
2024/01/28 08:17:50;;;;;;;3.23;3.03;;;;;;;5.38;100.00;146605.59;5112679;28;20203;-60
2024/01/28 08:20:19;;;;;;;2.80;2.70;;;;;;;5.50;100.00;147433.00;5112984;28;20653;-59
2024/01/28 08:22:50;;;;;;;2.80;2.70;;;;;;;5.57;100.00;147450.59;5112569;28;20183;-61
2024/01/28 08:25:18;;;;;;;3.63;3.43;;;;;;;5.59;100.00;147455.66;5112589;27;20194;-60
2024/01/28 08:27:45;;;;;;;4.03;3.83;;;;;;;5.66;100.00;147473.28;5112852;28;20183;-60
2024/01/28 08:30:13;;;;;;;4.30;4.00;;;;;;;5.74;100.00;147493.41;5112514;28;20184;-60
2024/01/28 08:32:40;;;;;;;4.10;3.90;;;;;;;5.76;100.00;147498.47;5112478;28;20187;-60
2024/01/28 08:35:08;;;;;;;4.03;3.83;;;;;;;5.74;100.00;147492.16;5112425;28;20219;-59
2024/01/28 08:37:35;;;;;;;3.83;3.63;;;;;;;5.74;100.00;147493.41;5112322;28;20218;-59
2024/01/28 08:40:07;;;;;;;2.97;2.87;;;;;;;5.74;100.00;147493.41;5112367;28;20256;-60
2024/01/28 08:42:35;;;;;;;3.20;3.00;;;;;;;5.63;100.00;147465.75;5112560;28;20711;-60
2024/01/28 08:45:02;;;;;;;3.70;3.40;;;;;;;5.58;100.00;147453.13;5112564;28;20240;-61
2024/01/28 08:47:29;;;;;;;4.20;3.90;;;;;;;5.57;100.00;147450.59;5112202;28;20187;-61
2024/01/28 08:49:57;;;;;;;3.60;3.40;;;;;;;5.52;100.00;147439.28;5112437;28;20184;-59
2024/01/28 08:52:24;;;;;;;3.70;3.40;;;;;;;5.57;100.00;147450.59;5112117;28;20187;-60
2024/01/28 08:54:51;;;;;;;3.20;3.00;;;;;;;5.64;100.00;147468.28;5111939;28;20253;-60
2024/01/28 08:57:18;;;;;;;3.37;3.20;;;;;;;5.69;100.00;147479.56;5112291;28;20183;-60
2024/01/28 08:59:47;;;;;;;3.43;3.30;;;;;;;5.60;100.00;147456.94;5112365;28;20270;-60
2024/01/28 09:02:14;;;;;;;3.93;3.60;;;;;;;5.52;100.00;147438.00;5112157;28;20243;-60
2024/01/28 09:04:42;;;;;;;3.80;3.50;;;;;;;5.45;100.00;147420.41;5112048;28;20183;-59
2024/01/28 09:07:09;;;;;;;3.70;3.50;;;;;;;5.73;100.00;147489.66;5111980;28;20269;-60
2024/01/28 09:09:36;;;;;;;4.00;3.80;;;;;;;5.74;100.00;147492.16;5111897;28;20700;-60
2024/01/28 09:12:04;;;;;;;4.00;3.80;;;;;;;5.82;100.00;147513.56;5111903;28;20187;-59
2024/01/28 09:14:31;;;;;;;3.10;3.00;;;;;;;5.55;100.00;147445.59;5111858;28;20183;-60
2024/01/28 09:17:00;;;;;;;4.40;3.70;;;;;;;5.60;100.00;147456.94;5112198;28;20232;-60
2024/01/28 09:19:27;;;;;;;3.37;3.27;;;;;;;5.53;100.00;147440.53;5113910;28;20203;-60
2024/01/28 09:21:54;;;;;;;3.90;3.70;;;;;;;5.46;100.00;147422.94;5116133;27;20247;-60
2024/01/28 09:24:21;;;;;;;3.70;3.50;;;;;;;5.58;100.00;147451.88;5116197;28;20195;-61
2024/01/28 09:26:48;;;;;;;3.53;3.43;;;;;;;5.65;100.00;147470.75;5116596;28;20198;-59
2024/01/28 09:29:15;;;;;;;3.10;3.00;;;;;;;5.54;100.00;147443.06;5115934;28;20566;-60
2024/01/28 09:31:45;;;;;;;3.73;3.53;;;;;;;5.50;100.00;147433.00;5116228;28;20638;-60
2024/01/28 09:34:14;;;;;;;3.63;3.53;;;;;;;5.38;100.00;147402.81;5115887;28;20260;-60
2024/01/28 09:36:41;;;;;;;3.80;3.60;;;;;;;5.75;100.00;147495.94;5116146;28;20256;-60
2024/01/28 09:39:09;;;;;;;3.40;3.30;;;;;;;5.77;100.00;147499.72;5116129;28;20684;-60
2024/01/28 09:41:44;;;;;;;3.50;3.40;;;;;;;5.82;100.00;147513.56;5115608;28;20248;-60
2024/01/28 09:44:11;;;;;;;2.97;2.87;;;;;;;5.84;100.00;147517.34;5115762;28;20642;-60
2024/01/28 09:46:38;;;;;;;3.30;3.20;;;;;;;6.05;100.00;147570.28;5115587;28;20183;-61
2024/01/28 09:49:11;;;;;;;3.70;3.40;;;;;;;5.97;100.00;147550.13;5115641;28;20308;-61
2024/01/28 09:51:39;;;;;;;2.97;2.87;;;;;;;6.09;100.00;147580.34;5115605;28;20202;-61
2024/01/28 09:54:08;;;;;;;3.60;3.50;;;;;;;5.99;100.00;147555.16;5115614;28;20604;-60
2024/01/28 09:56:36;;;;;;;2.97;2.87;;;;;;;5.97;100.00;147551.41;5115384;28;20278;-60
2024/01/28 09:59:04;;;;;;;3.40;3.30;;;;;;;6.00;100.00;147556.41;5115361;28;20216;-60
2024/01/28 10:01:32;;;;;;;3.37;3.27;;;;;;;5.95;100.00;147546.34;5115345;28;20291;-59
2024/01/28 10:04:00;;;;;;;4.20;3.73;;;;;;;6.06;100.00;147572.81;5115334;28;20219;-61
2024/01/28 10:06:28;;;;;;;3.63;3.50;;;;;;;6.04;100.00;147567.75;5115265;28;20190;-60
2024/01/28 10:08:56;;;;;;;3.53;3.33;;;;;;;6.02;100.00;147561.47;5115119;28;20186;-59
2024/01/28 10:11:24;;;;;;;3.23;3.13;;;;;;;6.28;100.00;147628.19;5115537;28;20213;-59
2024/01/28 10:13:53;;;;;;;3.27;3.07;;;;;;;6.32;100.00;147638.28;5115153;28;20172;-60
2024/01/28 10:16:24;;;;;;;3.20;3.10;;;;;;;6.35;100.00;147644.59;5115108;28;20241;-59
2024/01/28 10:18:51;;;;;;;3.20;3.10;;;;;;;6.45;100.00;147669.75;5115313;28;20572;-59
2024/01/28 10:21:18;;;;;;;3.33;3.13;;;;;;;6.44;100.00;147667.28;5114952;27;20217;-60
2024/01/28 10:23:45;;;;;;;3.57;3.40;;;;;;;6.57;100.00;147700.03;5114972;28;20195;-60
2024/01/28 10:26:13;;;;;;;3.10;3.00;;;;;;;6.49;100.00;147679.88;5115220;28;20707;-59
2024/01/28 10:28:41;;;;;;;7.97;3.10;;;;;;;6.45;100.00;147668.53;5115068;28;20219;-60
2024/01/28 10:31:08;;;;;;;2.93;2.83;;;;;;;6.31;100.00;147634.53;5113823;28;20192;-60
2024/01/28 10:33:35;;;;;;;3.33;3.23;;;;;;;6.41;100.00;147659.69;5114732;28;20217;-61
2024/01/28 10:36:05;;;;;;;3.57;3.37;;;;;;;6.56;100.00;147697.50;5115007;28;20633;-60
2024/01/28 10:38:33;;;;;;;2.90;2.80;;;;;;;6.55;100.00;147693.72;5114945;28;20226;-60
2024/01/28 10:41:01;;;;;;;3.57;3.37;;;;;;;6.44;100.00;147667.28;5114727;28;20552;-60
2024/01/28 10:43:36;;;;;;;3.40;3.20;;;;;;;6.35;100.00;147644.59;5114618;28;20650;-60
2024/01/28 10:46:07;;;;;;;3.63;3.53;;;;;;;6.46;100.00;147672.28;5114548;28;20179;-60
2024/01/28 10:48:42;;;;;;;4.37;4.17;;;;;;;6.37;100.00;147649.59;5114324;28;20196;-61
2024/01/28 10:51:12;;;;;;;3.50;3.40;;;;;;;6.46;100.00;147672.28;5114383;28;20183;-60
2024/01/28 10:53:39;;;;;;;3.50;3.30;;;;;;;6.38;100.00;147653.41;5114324;28;20179;-60
2024/01/28 10:56:08;;;;;;;3.80;3.60;;;;;;;6.39;100.00;147654.66;5114137;28;20231;-61
2024/01/28 10:58:37;;;;;;;3.80;3.60;;;;;;;6.45;100.00;147668.53;5114045;28;20279;-61
2024/01/28 11:01:06;;;;;;;3.80;3.60;;;;;;;6.36;100.00;147647.13;5114201;28;20190;-61
2024/01/28 11:03:33;;;;;;;4.47;4.27;;;;;;;6.30;100.00;147633.25;5114683;28;20195;-60
2024/01/28 11:06:01;;;;;;;4.50;4.30;;;;;;;6.38;100.00;147652.13;5114480;28;20191;-60
2024/01/28 11:08:28;;;;;;;3.67;3.57;;;;;;;6.26;100.00;147621.91;5114144;28;20187;-60
2024/01/28 11:10:55;;;;;;;4.40;4.20;;;;;;;6.34;100.00;147642.06;5113983;28;20183;-60
2024/01/28 11:13:22;;;;;;;5.07;4.77;;;;;;;6.15;100.00;147594.22;5114297;28;20248;-60
2024/01/28 11:15:51;;;;;;;4.73;4.53;;;;;;;6.47;100.00;147673.56;5114364;27;20183;-61
2024/01/28 11:18:18;;;;;;;4.30;4.10;;;;;;;6.55;100.00;147693.72;5113714;28;20204;-60
2024/01/28 11:20:45;;;;;;;4.07;3.93;;;;;;;6.85;100.00;147770.59;5113900;28;20188;-60
2024/01/28 11:23:17;;;;;;;4.43;4.23;;;;;;;6.84;100.00;147766.78;5114001;27;20207;-59
2024/01/28 11:25:46;;;;;;;4.37;4.17;;;;;;;6.76;100.00;147746.63;5114014;28;20189;-61